Aérodrome :
LOGIN :

S'inscrire | Disclaimer

   EN    FR    IT 

 










Légende :    VFR   VFR Marginal   IFR   IFR Intensif   IFR Très Intensif
Visi : 
Plafond : 
>= 8 km
>= 3000ft
5 à 8 km
1000 à 3000 ft
1500m à 5 km
500 à 1000 ft
800 à 1500m
200 à 500 ft
< 800m
< 200 ft
Symboles :   Orages  Brouillard  Fortes neiges  Fortes précipitations  Vent > 20 kt
SIGMETs :   Divers  Orages  Givrage  Turbulence  Onde Orograph.  Cendres Volcan.







- Altitude de l'aérodrome : 375 ft
- Code IATA : MST


EHBK - Maastricht Aachen

DERNIER METAR :
  • 280055Z AUTO VRB02KT 9999 NSC 18/15 Q1018

METARs EXPIRÉS :
  • 280025Z AUTO VRB02KT 9999 NSC 18/16 Q1018
  • 272355Z AUTO 36005KT 330V030 9999 NCD 19/16 Q1018
  • 272325Z AUTO 35005KT 310V020 9999 NSC 19/17 Q1018
  • 272255Z AUTO 34004KT 320V020 9999 NCD 20/17 Q1018
  • 272225Z AUTO 36008KT 320V040 9999 -RA FEW015CB 20/18 Q1017

TAF TAF EHBK
Valide du 28 à 00h jusqu'au 29 à 06h UTC


272309Z 2800/2906 33008KT CAVOK
PROB30
TEMPO 2800/2813 6000 SHRA TSRA BKN040 SCT060CB
PROB40
TEMPO 2813/2820 22015G25KT 4000 TSRAGR SCT030CB BKN040
Pas de NOTAMs connus pour ce terrain.



MET'MAP, la Météo Aéronautique d'un coup d'oeil ! - Copyright ORBIFLY Décembre 2007 - Disclaimer

ORBIFLY MET'MAP TEAM :

Programmation & Développement : Alexandra Zaïnal
Conception & Développement : Baudouin d'Aumeries
Co-Programmation & Développement : Marc-Olivier Méhu
Soutien technique & logistique : Manuel Goepfert

Contact : metmap@orbifly.com




SOURCES & CREDITS :

   NOAA